createdAt,value
2022-12-05T00:01:16.471Z,95113.38
2022-12-05T00:04:18.424Z,95114.94
2022-12-05T00:07:20.153Z,95119.81
2022-12-05T00:10:21.867Z,95121.38
2022-12-05T00:13:23.594Z,95122.09
2022-12-05T00:16:28.176Z,95123.53
2022-12-05T00:19:29.847Z,95128.25
2022-12-05T00:22:31.611Z,95135.16
2022-12-05T00:25:35.814Z,95130.88
2022-12-05T00:28:37.953Z,95148.88
2022-12-05T00:31:42.149Z,95159.56
2022-12-05T00:34:43.879Z,95165.06
2022-12-05T00:37:45.615Z,95153.38
2022-12-05T00:40:47.311Z,95149.72
2022-12-05T00:43:49.270Z,95148.78
2022-12-05T00:46:52.370Z,95157.41
2022-12-05T00:49:54.066Z,95171.00
2022-12-05T00:52:55.762Z,95174.78
2022-12-05T00:55:57.566Z,95176.84
2022-12-05T00:59:00.348Z,95172.19
2022-12-05T01:02:03.462Z,95173.69
2022-12-05T01:05:05.658Z,95173.00
2022-12-05T01:08:07.523Z,95168.59
2022-12-05T01:11:10.344Z,95172.81
2022-12-05T01:14:12.507Z,95175.47
2022-12-05T01:17:15.616Z,95176.00
2022-12-05T01:20:17.531Z,95172.81
2022-12-05T01:23:19.672Z,95186.28
2022-12-05T01:26:22.149Z,95189.16
2022-12-05T01:29:24.364Z,95183.03
2022-12-05T01:32:27.512Z,95188.50
2022-12-05T01:35:31.145Z,95185.72
2022-12-05T01:38:32.822Z,95187.69
2022-12-05T01:41:35.408Z,95192.88
2022-12-05T01:44:55.523Z,95196.81
2022-12-05T01:47:59.059Z,95191.13
2022-12-05T01:51:01.046Z,95190.50
2022-12-05T01:54:04.786Z,95185.63
2022-12-05T01:57:08.207Z,95182.69
2022-12-05T02:00:11.957Z,95174.03
2022-12-05T02:03:18.482Z,95189.59
2022-12-05T02:06:20.744Z,95194.16
2022-12-05T02:09:23.321Z,95197.69
2022-12-05T02:12:25.910Z,95195.69
2022-12-05T02:15:32.166Z,95201.00
2022-12-05T02:18:42.308Z,95217.25
2022-12-05T02:21:55.375Z,95211.22
2022-12-05T02:25:13.630Z,95216.66
2022-12-05T02:28:27.731Z,95211.09
2022-12-05T02:31:33.320Z,95204.19
2022-12-05T02:34:37.909Z,95201.19
2022-12-05T02:37:42.477Z,95210.09
2022-12-05T02:40:47.900Z,95219.66
2022-12-05T02:43:53.678Z,95224.19
2022-12-05T02:46:57.365Z,95220.41
2022-12-05T02:49:59.416Z,95225.06
2022-12-05T02:53:03.818Z,95235.66
2022-12-05T02:56:06.491Z,95244.88
2022-12-05T02:59:08.185Z,95246.44
2022-12-05T03:02:22.052Z,95245.78
2022-12-05T03:05:38.091Z,95243.94
2022-12-05T03:08:40.990Z,95237.25
2022-12-05T03:11:45.558Z,95239.81
2022-12-05T03:14:49.848Z,95235.13
2022-12-05T03:17:54.096Z,95221.50
2022-12-05T03:20:58.812Z,95224.72
2022-12-05T03:24:02.840Z,95228.75
2022-12-05T03:27:08.002Z,95217.81
2022-12-05T03:30:11.475Z,95228.03
2022-12-05T03:33:17.516Z,95235.81
2022-12-05T03:36:22.195Z,95249.38
2022-12-05T03:39:25.823Z,95248.34
2022-12-05T03:42:31.261Z,95245.44
2022-12-05T03:45:35.614Z,95247.09
2022-12-05T03:48:42.388Z,95250.22
2022-12-05T03:51:47.304Z,95247.34
2022-12-05T03:54:51.491Z,95239.25
2022-12-05T03:57:55.889Z,95249.38
2022-12-05T04:00:59.416Z,95257.38
2022-12-05T04:04:06.001Z,95258.47
2022-12-05T04:07:09.586Z,95267.25
2022-12-05T04:10:13.157Z,95272.81
2022-12-05T04:13:16.580Z,95281.84
2022-12-05T04:16:20.573Z,95277.72
2022-12-05T04:19:25.854Z,95284.25
2022-12-05T04:22:27.826Z,95291.72
2022-12-05T04:25:36.412Z,95289.16
2022-12-05T04:28:39.465Z,95304.94
2022-12-05T04:31:42.441Z,95311.03
2022-12-05T04:34:49.310Z,95313.41
2022-12-05T04:37:52.614Z,95314.06
2022-12-05T04:40:57.264Z,95309.19
2022-12-05T04:44:01.483Z,95317.19
2022-12-05T04:47:05.323Z,95315.16
2022-12-05T04:50:11.055Z,95321.16
2022-12-05T04:53:13.480Z,95322.97
2022-12-05T04:56:16.914Z,95333.50
2022-12-05T04:59:19.052Z,95341.75
2022-12-05T05:02:24.900Z,95335.53
2022-12-05T05:05:28.542Z,95345.63
2022-12-05T05:08:30.679Z,95346.75
2022-12-05T05:11:33.365Z,95348.97
2022-12-05T05:14:35.271Z,95342.28
2022-12-05T05:17:37.004Z,95348.13
2022-12-05T05:20:40.094Z,95356.41
2022-12-05T05:23:43.080Z,95350.25
2022-12-05T05:26:45.714Z,95350.00
2022-12-05T05:29:47.450Z,95348.09
2022-12-05T05:32:49.346Z,95358.13
2022-12-05T05:35:52.461Z,95359.50
2022-12-05T05:38:55.347Z,95345.91
2022-12-05T05:41:57.069Z,95361.50
2022-12-05T05:44:58.801Z,95366.13
2022-12-05T05:48:00.480Z,95372.75
2022-12-05T05:51:04.315Z,95386.66
2022-12-05T05:54:05.990Z,95394.41
2022-12-05T05:57:07.694Z,95402.84
2022-12-05T06:00:10.242Z,95411.75
2022-12-05T06:03:12.050Z,95415.88
2022-12-05T06:06:15.218Z,95427.91
2022-12-05T06:09:16.855Z,95448.44
2022-12-05T06:12:18.548Z,95460.53
2022-12-05T06:15:20.212Z,95462.56
2022-12-05T06:18:21.988Z,95471.41
2022-12-05T06:21:25.343Z,95466.00
2022-12-05T06:24:27.060Z,95455.81
2022-12-05T06:27:29.814Z,95460.97
2022-12-05T06:30:31.481Z,95485.53
2022-12-05T06:33:33.095Z,95482.94
2022-12-05T06:36:36.207Z,95482.34
2022-12-05T06:39:37.917Z,95484.34
2022-12-05T06:42:39.577Z,95477.59
2022-12-05T06:45:41.318Z,95479.94
2022-12-05T06:48:43.019Z,95478.75
2022-12-05T06:51:46.136Z,95489.34
2022-12-05T06:54:47.855Z,95490.09
2022-12-05T06:57:49.599Z,95499.19
2022-12-05T07:00:51.326Z,95493.38
2022-12-05T07:03:53.058Z,95501.56
2022-12-05T07:06:56.111Z,95503.25
2022-12-05T07:09:58.071Z,95511.84
2022-12-05T07:12:59.839Z,95523.13
2022-12-05T07:16:01.706Z,95523.25
2022-12-05T07:19:03.498Z,95527.47
2022-12-05T07:22:09.474Z,95523.47
2022-12-05T07:25:15.473Z,95515.59
2022-12-05T07:28:17.166Z,95520.28
2022-12-05T07:31:19.775Z,95531.84
2022-12-05T07:34:21.538Z,95523.50
2022-12-05T07:37:24.617Z,95520.25
2022-12-05T07:40:26.262Z,95526.44
2022-12-05T07:43:27.961Z,95533.59
2022-12-05T07:46:29.782Z,95544.81
2022-12-05T07:49:31.481Z,95551.19
2022-12-05T07:52:34.499Z,95556.19
2022-12-05T07:55:37.574Z,95549.28
2022-12-05T07:58:39.228Z,95542.31
2022-12-05T08:01:40.947Z,95535.88
2022-12-05T08:04:42.658Z,95521.91
2022-12-05T08:07:45.786Z,95536.63
2022-12-05T08:10:47.585Z,95553.16
2022-12-05T08:13:49.524Z,95570.34
2022-12-05T08:16:51.431Z,95572.03
2022-12-05T08:19:53.181Z,95576.56
2022-12-05T08:22:56.281Z,95569.69
2022-12-05T08:26:00.959Z,95562.16
2022-12-05T08:29:03.811Z,95562.13
2022-12-05T08:32:05.653Z,95563.34
2022-12-05T08:35:07.704Z,95554.03
2022-12-05T08:38:10.762Z,95546.50
2022-12-05T08:41:13.841Z,95535.34
2022-12-05T08:44:15.699Z,95545.78
2022-12-05T08:47:17.520Z,95565.81
2022-12-05T08:50:19.252Z,95564.88
2022-12-05T08:53:22.411Z,95571.69
2022-12-05T08:56:27.394Z,95564.16
2022-12-05T08:59:29.359Z,95572.16
2022-12-05T09:02:31.012Z,95571.81
2022-12-05T09:05:33.067Z,95586.03
2022-12-05T09:08:36.542Z,95584.91
2022-12-05T09:11:39.578Z,95579.94
2022-12-05T09:14:41.304Z,95587.91
2022-12-05T09:17:43.015Z,95587.13
2022-12-05T09:20:44.718Z,95599.50
2022-12-05T09:23:47.992Z,95581.22
2022-12-05T09:26:50.020Z,95580.44
2022-12-05T09:29:51.674Z,95580.53
2022-12-05T09:32:53.345Z,95598.53
2022-12-05T09:35:55.077Z,95598.97
2022-12-05T09:38:59.583Z,95600.53
2022-12-05T09:42:25.328Z,95602.00
2022-12-05T09:45:30.293Z,95594.78
2022-12-05T09:48:32.617Z,95585.72
2022-12-05T09:51:36.822Z,95598.84
2022-12-05T09:54:39.889Z,95597.13
2022-12-05T09:57:44.482Z,95600.13
2022-12-05T10:00:46.463Z,95585.03
2022-12-05T10:03:58.062Z,95594.44
2022-12-05T10:07:06.471Z,95592.69
2022-12-05T10:10:21.280Z,95598.72
2022-12-05T10:13:29.710Z,95598.84
2022-12-05T10:16:33.045Z,95591.16
2022-12-05T10:19:39.171Z,95592.13
2022-12-05T10:22:45.129Z,95586.97
2022-12-05T10:25:57.664Z,95591.53
2022-12-05T10:29:02.601Z,95574.44
2022-12-05T10:32:06.666Z,95572.53
2022-12-05T10:35:15.062Z,95577.84
2022-12-05T10:38:19.737Z,95586.84
2022-12-05T10:41:23.017Z,95581.50
2022-12-05T10:44:24.774Z,95574.13
2022-12-05T10:47:26.639Z,95577.84
2022-12-05T10:50:29.774Z,95577.38
2022-12-05T10:53:36.874Z,95579.28
2022-12-05T10:56:40.746Z,95588.50
2022-12-05T10:59:44.968Z,95586.94
2022-12-05T11:02:50.919Z,95588.78
2022-12-05T11:05:53.014Z,95585.97
2022-12-05T11:09:04.701Z,95573.38
2022-12-05T11:12:15.742Z,95572.44
2022-12-05T11:15:21.573Z,95576.28
2022-12-05T11:18:27.891Z,95570.91
2022-12-05T11:21:41.623Z,95572.44
2022-12-05T11:24:43.396Z,95569.47
2022-12-05T11:27:46.442Z,95582.72
2022-12-05T11:30:56.045Z,95577.94
2022-12-05T11:34:02.252Z,95569.34
2022-12-05T11:37:06.605Z,95569.47
2022-12-05T11:40:15.178Z,95568.75
2022-12-05T11:43:29.123Z,95569.59
2022-12-05T11:46:36.697Z,95570.81
2022-12-05T11:49:44.869Z,95574.72
2022-12-05T11:52:53.814Z,95565.03
2022-12-05T11:56:00.430Z,95568.75
2022-12-05T11:59:17.228Z,95567.13
2022-12-05T12:02:26.025Z,95571.03
2022-12-05T12:05:35.664Z,95564.00
2022-12-05T12:08:44.812Z,95555.88
2022-12-05T12:11:51.772Z,95566.09
2022-12-05T12:15:00.820Z,95557.75
2022-12-05T12:18:10.151Z,95559.31
2022-12-05T12:21:16.190Z,95554.91
2022-12-05T12:24:22.487Z,95548.38
2022-12-05T12:27:32.478Z,95535.72
2022-12-05T12:30:46.065Z,95532.03
2022-12-05T12:33:52.825Z,95532.53
2022-12-05T12:36:58.698Z,95537.75
2022-12-05T12:40:05.488Z,95535.31
2022-12-05T12:43:30.879Z,95548.00
2022-12-05T12:46:43.537Z,95543.59
2022-12-05T12:49:50.719Z,95539.38
2022-12-05T12:53:03.807Z,95537.13
2022-12-05T12:56:12.004Z,95534.53
2022-12-05T12:59:23.162Z,95538.31
2022-12-05T13:02:31.350Z,95536.31
2022-12-05T13:05:34.441Z,95528.31
2022-12-05T13:08:38.723Z,95543.84
2022-12-05T13:11:42.122Z,95541.38
2022-12-05T13:14:48.867Z,95541.25
2022-12-05T13:17:54.225Z,95551.72
2022-12-05T13:20:56.979Z,95551.50
2022-12-05T13:23:59.653Z,95562.75
2022-12-05T13:27:02.747Z,95559.13
2022-12-05T13:30:09.363Z,95555.53
2022-12-05T13:33:17.632Z,95557.63
2022-12-05T13:36:20.958Z,95562.41
2022-12-05T13:39:22.921Z,95572.56
2022-12-05T13:42:26.368Z,95577.44
2022-12-05T13:45:28.507Z,95571.59
2022-12-05T13:48:33.396Z,95559.28
2022-12-05T13:51:36.163Z,95566.06
2022-12-05T13:54:42.700Z,95569.97
2022-12-05T13:57:54.423Z,95557.25
2022-12-05T14:01:11.186Z,95559.94
2022-12-05T14:04:30.543Z,95568.47
2022-12-05T14:07:38.558Z,95559.22
2022-12-05T14:10:55.174Z,95549.47
2022-12-05T14:14:02.415Z,95555.69
2022-12-05T14:17:08.063Z,95547.13
2022-12-05T14:20:19.501Z,95540.09
2022-12-05T14:23:45.202Z,95525.47
2022-12-05T14:26:57.158Z,95521.13
2022-12-05T14:30:02.858Z,95530.13
2022-12-05T14:33:13.060Z,95526.69
2022-12-05T14:36:16.945Z,95518.53
2022-12-05T14:39:22.650Z,95522.09
2022-12-05T14:42:29.609Z,95528.44
2022-12-05T14:45:33.535Z,95534.59
2022-12-05T14:48:40.110Z,95539.91
2022-12-05T14:51:44.940Z,95541.84
2022-12-05T14:54:46.732Z,95535.50
2022-12-05T14:57:50.300Z,95532.06
2022-12-05T15:00:55.225Z,95535.31
2022-12-05T15:04:09.528Z,95549.09
2022-12-05T15:07:13.092Z,95550.69
2022-12-05T15:10:16.741Z,95542.75
2022-12-05T15:13:22.356Z,95543.84
2022-12-05T15:16:24.787Z,95533.31
2022-12-05T15:19:27.993Z,95539.75
2022-12-05T15:22:32.469Z,95544.84
2022-12-05T15:25:35.323Z,95542.53
2022-12-05T15:28:38.464Z,95543.75
2022-12-05T15:31:44.768Z,95544.09
2022-12-05T15:34:48.158Z,95557.66
2022-12-05T15:37:52.200Z,95549.66
2022-12-05T15:40:53.894Z,95553.59
2022-12-05T15:43:57.636Z,95550.13
2022-12-05T15:46:59.311Z,95545.22
2022-12-05T15:50:01.127Z,95543.03
2022-12-05T15:53:05.448Z,95546.13
2022-12-05T15:56:08.853Z,95553.81
2022-12-05T15:59:14.790Z,95553.69
2022-12-05T16:02:20.122Z,95558.91
2022-12-05T16:05:22.841Z,95566.06
2022-12-05T16:08:25.059Z,95564.38
2022-12-05T16:11:26.893Z,95561.72
2022-12-05T16:17:55.860Z,95562.44
2022-12-05T16:20:57.693Z,95566.44
2022-12-05T16:24:05.662Z,95578.00
2022-12-05T16:27:14.117Z,95576.44
2022-12-05T16:30:21.339Z,95567.78
2022-12-05T16:33:23.484Z,95561.31
2022-12-05T16:36:25.221Z,95563.41
2022-12-05T16:39:28.101Z,95564.13
2022-12-05T16:42:30.332Z,95554.00
2022-12-05T16:45:40.824Z,95556.00
2022-12-05T16:48:43.068Z,95559.75
2022-12-05T16:51:45.943Z,95560.59
2022-12-05T16:54:48.016Z,95563.22
2022-12-05T16:57:50.042Z,95551.97
2022-12-05T17:00:58.694Z,95555.34
2022-12-05T17:04:00.927Z,95564.91
2022-12-05T17:07:02.850Z,95569.31
2022-12-05T17:10:05.115Z,95564.75
2022-12-05T17:13:08.144Z,95572.53
2022-12-05T17:16:11.813Z,95568.88
2022-12-05T17:19:14.353Z,95564.78
2022-12-05T17:22:17.232Z,95568.22
2022-12-05T17:25:23.401Z,95570.91
2022-12-05T17:28:25.729Z,95563.91
2022-12-05T17:31:29.513Z,95566.94
2022-12-05T17:34:31.560Z,95556.44
2022-12-05T17:37:33.623Z,95559.69
2022-12-05T17:40:35.749Z,95561.78
2022-12-05T17:43:37.455Z,95575.47
2022-12-05T17:46:41.116Z,95591.59
2022-12-05T17:49:42.885Z,95585.03
2022-12-05T17:52:44.650Z,95564.91
2022-12-05T17:55:46.835Z,95556.09
2022-12-05T17:58:49.121Z,95550.19
2022-12-05T18:01:53.636Z,95555.22
2022-12-05T18:04:56.074Z,95553.00
2022-12-05T18:07:58.668Z,95547.75
2022-12-05T18:11:01.095Z,95531.16
2022-12-05T18:14:03.231Z,95528.41
2022-12-05T18:17:07.268Z,95530.81
2022-12-05T18:20:11.751Z,95532.03
2022-12-05T18:23:15.070Z,95529.56
2022-12-05T18:26:17.380Z,95537.81
2022-12-05T18:29:19.625Z,95534.63
2022-12-05T18:32:23.563Z,95528.50
2022-12-05T18:35:26.082Z,95527.16
2022-12-05T18:38:28.192Z,95537.03
2022-12-05T18:41:30.478Z,95542.06
2022-12-05T18:44:32.793Z,95533.06
2022-12-05T18:47:37.035Z,95537.06
2022-12-05T18:50:39.277Z,95547.75
2022-12-05T18:53:42.214Z,95536.31
2022-12-05T18:56:44.602Z,95541.75
2022-12-05T18:59:47.034Z,95535.50
2022-12-05T19:02:50.412Z,95534.75
2022-12-05T19:05:54.536Z,95539.97
2022-12-05T19:08:57.789Z,95545.16
2022-12-05T19:12:00.111Z,95551.03
2022-12-05T19:15:02.786Z,95556.63
2022-12-05T19:18:06.918Z,95559.94
2022-12-05T19:21:09.366Z,95563.41
2022-12-05T19:24:12.914Z,95558.38
2022-12-05T19:27:15.562Z,95565.38
2022-12-05T19:30:17.690Z,95566.84
2022-12-05T19:33:21.721Z,95565.09
2022-12-05T19:36:25.956Z,95562.59
2022-12-05T19:39:28.238Z,95564.75
2022-12-05T19:42:30.575Z,95575.63
2022-12-05T19:45:42.213Z,95568.09
2022-12-05T19:48:45.955Z,95561.00
2022-12-05T19:51:48.359Z,95564.31
2022-12-05T19:54:50.526Z,95563.22
2022-12-05T19:57:55.944Z,95559.00
2022-12-05T20:01:06.771Z,95567.00
2022-12-05T20:04:11.903Z,95568.44
2022-12-05T20:07:14.578Z,95565.31
2022-12-05T20:10:17.198Z,95567.84
2022-12-05T20:13:45.272Z,95575.97
2022-12-05T20:16:43.425Z,95585.66
2022-12-05T20:19:48.761Z,95579.69
2022-12-05T20:22:53.536Z,95587.53
2022-12-05T20:25:56.961Z,95577.31
2022-12-05T20:29:00.586Z,95582.88
2022-12-05T20:32:03.274Z,95568.16
2022-12-05T20:35:07.856Z,95569.84
2022-12-05T20:38:10.221Z,95559.13
2022-12-05T20:41:13.658Z,95564.19
2022-12-05T20:44:16.774Z,95576.63
2022-12-05T20:47:18.595Z,95599.06
2022-12-05T20:50:27.049Z,95603.78
2022-12-05T20:53:29.625Z,95598.78
2022-12-05T20:56:32.587Z,95601.94
2022-12-05T20:59:34.677Z,95597.81
2022-12-05T21:02:36.912Z,95587.66
2022-12-05T21:05:43.298Z,95592.25
2022-12-05T21:08:45.568Z,95606.13
2022-12-05T21:11:47.300Z,95598.78
2022-12-05T21:14:49.017Z,95598.59
2022-12-05T21:17:50.733Z,95585.09
2022-12-05T21:20:57.626Z,95584.16
2022-12-05T21:24:00.339Z,95589.69
2022-12-05T21:27:02.081Z,95602.56
2022-12-05T21:30:04.232Z,95604.13
2022-12-05T21:33:06.084Z,95599.25
2022-12-05T21:36:09.811Z,95608.63
2022-12-05T21:39:11.793Z,95604.75
2022-12-05T21:42:13.797Z,95605.56
2022-12-05T21:45:15.504Z,95621.81
2022-12-05T21:48:17.280Z,95619.75
2022-12-05T21:51:20.833Z,95630.75
2022-12-05T21:54:22.502Z,95627.16
2022-12-05T21:57:24.244Z,95626.41
2022-12-05T22:00:26.052Z,95626.47
2022-12-05T22:03:27.812Z,95624.44
2022-12-05T22:06:31.019Z,95623.84
2022-12-05T22:09:32.768Z,95619.13
2022-12-05T22:12:34.683Z,95622.69
2022-12-05T22:15:36.433Z,95628.81
2022-12-05T22:18:38.481Z,95611.59
2022-12-05T22:21:43.258Z,95616.63
2022-12-05T22:24:44.954Z,95601.25
2022-12-05T22:27:46.626Z,95603.31
2022-12-05T22:30:48.447Z,95607.81
2022-12-05T22:33:50.255Z,95611.25
2022-12-05T22:36:53.377Z,95611.44
2022-12-05T22:39:55.063Z,95608.78
2022-12-05T22:42:56.748Z,95620.47
2022-12-05T22:46:02.528Z,95607.53
2022-12-05T22:49:04.566Z,95608.28
2022-12-05T22:52:07.678Z,95607.81
2022-12-05T22:55:09.415Z,95613.13
2022-12-05T22:58:11.257Z,95605.44
2022-12-05T23:01:14.007Z,95606.66
2022-12-05T23:04:15.862Z,95605.91
2022-12-05T23:07:19.076Z,95607.69
2022-12-05T23:10:20.809Z,95592.00
2022-12-05T23:13:22.631Z,95605.16
2022-12-05T23:16:25.388Z,95605.44
2022-12-05T23:19:27.198Z,95596.69
2022-12-05T23:22:30.310Z,95598.25
2022-12-05T23:25:32.108Z,95599.81
2022-12-05T23:28:33.838Z,95596.22
2022-12-05T23:31:35.616Z,95593.66
2022-12-05T23:34:37.376Z,95578.03
2022-12-05T23:37:40.448Z,95592.44
2022-12-05T23:40:42.198Z,95601.50
2022-12-05T23:43:43.880Z,95596.03
2022-12-05T23:46:45.671Z,95586.47
2022-12-05T23:49:47.399Z,95581.81
2022-12-05T23:52:50.444Z,95585.28
2022-12-05T23:55:52.104Z,95585.97
2022-12-05T23:58:54.052Z,95587.06
